sensor_id;sensor_type;location;lat;lon;timestamp;P1;durP1;ratioP1;P2;durP2;ratioP2
19225;SDS011;9747;48.536;12.522;2023-08-12T00:02:01;2.00;;;1.90;;
19225;SDS011;9747;48.536;12.522;2023-08-12T00:04:30;1.88;;;1.80;;
19225;SDS011;9747;48.536;12.522;2023-08-12T00:06:57;2.55;;;2.08;;
19225;SDS011;9747;48.536;12.522;2023-08-12T00:09:25;2.10;;;1.90;;
19225;SDS011;9747;48.536;12.522;2023-08-12T00:11:52;1.80;;;1.70;;
19225;SDS011;9747;48.536;12.522;2023-08-12T00:14:20;1.88;;;1.77;;
19225;SDS011;9747;48.536;12.522;2023-08-12T00:16:47;1.80;;;1.70;;
19225;SDS011;9747;48.536;12.522;2023-08-12T00:19:15;1.70;;;1.70;;
19225;SDS011;9747;48.536;12.522;2023-08-12T00:21:43;2.05;;;1.95;;
19225;SDS011;9747;48.536;12.522;2023-08-12T00:24:11;1.98;;;1.88;;
19225;SDS011;9747;48.536;12.522;2023-08-12T00:26:38;2.75;;;1.80;;
19225;SDS011;9747;48.536;12.522;2023-08-12T00:29:06;2.10;;;2.00;;
19225;SDS011;9747;48.536;12.522;2023-08-12T00:31:34;1.80;;;1.70;;
19225;SDS011;9747;48.536;12.522;2023-08-12T00:34:01;1.67;;;1.63;;
19225;SDS011;9747;48.536;12.522;2023-08-12T00:36:29;1.90;;;1.80;;
19225;SDS011;9747;48.536;12.522;2023-08-12T00:38:58;2.17;;;2.08;;
19225;SDS011;9747;48.536;12.522;2023-08-12T00:41:26;2.00;;;1.90;;
19225;SDS011;9747;48.536;12.522;2023-08-12T00:43:53;1.80;;;1.70;;
19225;SDS011;9747;48.536;12.522;2023-08-12T00:46:21;1.90;;;1.80;;
19225;SDS011;9747;48.536;12.522;2023-08-12T00:48:49;1.75;;;1.65;;
19225;SDS011;9747;48.536;12.522;2023-08-12T00:51:17;1.50;;;1.50;;
19225;SDS011;9747;48.536;12.522;2023-08-12T00:53:46;1.80;;;1.70;;
19225;SDS011;9747;48.536;12.522;2023-08-12T00:56:15;1.90;;;1.80;;
19225;SDS011;9747;48.536;12.522;2023-08-12T00:58:43;1.95;;;1.85;;
19225;SDS011;9747;48.536;12.522;2023-08-12T01:01:11;2.10;;;2.00;;
19225;SDS011;9747;48.536;12.522;2023-08-12T01:03:40;2.17;;;2.08;;
19225;SDS011;9747;48.536;12.522;2023-08-12T01:06:08;2.03;;;1.92;;
19225;SDS011;9747;48.536;12.522;2023-08-12T01:08:35;1.90;;;1.80;;
19225;SDS011;9747;48.536;12.522;2023-08-12T01:11:05;2.15;;;1.98;;
19225;SDS011;9747;48.536;12.522;2023-08-12T01:13:40;1.92;;;1.83;;
19225;SDS011;9747;48.536;12.522;2023-08-12T01:16:13;1.95;;;1.65;;
19225;SDS011;9747;48.536;12.522;2023-08-12T01:18:41;1.92;;;1.83;;
19225;SDS011;9747;48.536;12.522;2023-08-12T01:21:10;1.95;;;1.85;;
19225;SDS011;9747;48.536;12.522;2023-08-12T01:23:43;2.05;;;1.95;;
19225;SDS011;9747;48.536;12.522;2023-08-12T01:26:12;1.98;;;1.88;;
19225;SDS011;9747;48.536;12.522;2023-08-12T01:28:39;1.80;;;1.70;;
19225;SDS011;9747;48.536;12.522;2023-08-12T01:31:08;2.00;;;1.90;;
19225;SDS011;9747;48.536;12.522;2023-08-12T01:33:42;2.00;;;1.90;;
19225;SDS011;9747;48.536;12.522;2023-08-12T01:36:16;1.92;;;1.83;;
19225;SDS011;9747;48.536;12.522;2023-08-12T01:38:46;2.00;;;1.90;;
19225;SDS011;9747;48.536;12.522;2023-08-12T01:41:17;1.95;;;1.85;;
19225;SDS011;9747;48.536;12.522;2023-08-12T01:43:45;2.10;;;2.00;;
19225;SDS011;9747;48.536;12.522;2023-08-12T01:46:15;2.08;;;1.98;;
19225;SDS011;9747;48.536;12.522;2023-08-12T01:48:43;2.10;;;2.00;;
19225;SDS011;9747;48.536;12.522;2023-08-12T01:51:10;2.00;;;1.90;;
19225;SDS011;9747;48.536;12.522;2023-08-12T01:53:38;1.92;;;1.83;;
19225;SDS011;9747;48.536;12.522;2023-08-12T01:56:07;2.00;;;1.90;;
19225;SDS011;9747;48.536;12.522;2023-08-12T01:58:35;2.00;;;1.90;;
19225;SDS011;9747;48.536;12.522;2023-08-12T02:01:02;2.10;;;2.00;;
19225;SDS011;9747;48.536;12.522;2023-08-12T02:03:30;2.00;;;1.90;;
19225;SDS011;9747;48.536;12.522;2023-08-12T02:05:57;2.10;;;2.00;;
19225;SDS011;9747;48.536;12.522;2023-08-12T02:08:25;2.03;;;1.83;;
19225;SDS011;9747;48.536;12.522;2023-08-12T02:10:52;2.00;;;1.90;;
19225;SDS011;9747;48.536;12.522;2023-08-12T02:13:22;2.03;;;1.92;;
19225;SDS011;9747;48.536;12.522;2023-08-12T02:15:50;1.60;;;1.60;;
19225;SDS011;9747;48.536;12.522;2023-08-12T02:18:17;2.13;;;2.03;;
19225;SDS011;9747;48.536;12.522;2023-08-12T02:20:46;1.90;;;1.80;;
19225;SDS011;9747;48.536;12.522;2023-08-12T02:23:14;1.83;;;1.73;;
19225;SDS011;9747;48.536;12.522;2023-08-12T02:25:41;2.17;;;2.00;;
19225;SDS011;9747;48.536;12.522;2023-08-12T02:28:09;1.88;;;1.77;;
19225;SDS011;9747;48.536;12.522;2023-08-12T02:30:38;1.95;;;1.85;;
19225;SDS011;9747;48.536;12.522;2023-08-12T02:33:08;2.10;;;2.00;;
19225;SDS011;9747;48.536;12.522;2023-08-12T02:35:36;2.00;;;1.90;;
19225;SDS011;9747;48.536;12.522;2023-08-12T02:38:04;2.00;;;1.90;;
19225;SDS011;9747;48.536;12.522;2023-08-12T02:40:32;1.95;;;1.85;;
19225;SDS011;9747;48.536;12.522;2023-08-12T02:42:59;1.90;;;1.80;;
19225;SDS011;9747;48.536;12.522;2023-08-12T02:45:27;1.85;;;1.75;;
19225;SDS011;9747;48.536;12.522;2023-08-12T02:47:55;2.20;;;2.10;;
19225;SDS011;9747;48.536;12.522;2023-08-12T02:50:23;2.20;;;2.00;;
19225;SDS011;9747;48.536;12.522;2023-08-12T02:52:50;2.10;;;2.00;;
19225;SDS011;9747;48.536;12.522;2023-08-12T02:55:18;1.90;;;1.80;;
19225;SDS011;9747;48.536;12.522;2023-08-12T02:57:45;2.00;;;1.90;;
19225;SDS011;9747;48.536;12.522;2023-08-12T03:00:13;2.15;;;1.92;;
19225;SDS011;9747;48.536;12.522;2023-08-12T03:02:42;1.90;;;1.80;;
19225;SDS011;9747;48.536;12.522;2023-08-12T03:05:11;1.67;;;1.67;;
19225;SDS011;9747;48.536;12.522;2023-08-12T03:07:38;1.95;;;1.85;;
19225;SDS011;9747;48.536;12.522;2023-08-12T03:10:06;1.65;;;1.65;;
19225;SDS011;9747;48.536;12.522;2023-08-12T03:12:34;2.15;;;1.98;;
19225;SDS011;9747;48.536;12.522;2023-08-12T03:15:02;1.95;;;1.85;;
19225;SDS011;9747;48.536;12.522;2023-08-12T03:17:31;2.10;;;2.00;;
19225;SDS011;9747;48.536;12.522;2023-08-12T03:20:00;1.95;;;1.85;;
19225;SDS011;9747;48.536;12.522;2023-08-12T03:22:32;1.90;;;1.80;;
19225;SDS011;9747;48.536;12.522;2023-08-12T03:24:59;2.20;;;2.10;;
19225;SDS011;9747;48.536;12.522;2023-08-12T03:27:27;2.10;;;1.90;;
19225;SDS011;9747;48.536;12.522;2023-08-12T03:29:55;1.77;;;1.77;;
19225;SDS011;9747;48.536;12.522;2023-08-12T03:32:23;1.98;;;1.88;;
19225;SDS011;9747;48.536;12.522;2023-08-12T03:34:51;1.83;;;1.73;;
19225;SDS011;9747;48.536;12.522;2023-08-12T03:37:19;1.80;;;1.70;;
19225;SDS011;9747;48.536;12.522;2023-08-12T03:39:51;1.98;;;1.88;;
19225;SDS011;9747;48.536;12.522;2023-08-12T03:42:19;2.13;;;1.95;;
19225;SDS011;9747;48.536;12.522;2023-08-12T03:44:47;1.83;;;1.70;;
19225;SDS011;9747;48.536;12.522;2023-08-12T03:47:16;1.90;;;1.90;;
19225;SDS011;9747;48.536;12.522;2023-08-12T03:49:47;1.63;;;1.63;;
19225;SDS011;9747;48.536;12.522;2023-08-12T03:52:15;2.00;;;1.90;;
19225;SDS011;9747;48.536;12.522;2023-08-12T03:54:42;2.20;;;2.10;;
19225;SDS011;9747;48.536;12.522;2023-08-12T03:57:12;2.00;;;1.90;;
19225;SDS011;9747;48.536;12.522;2023-08-12T03:59:40;1.73;;;1.70;;
19225;SDS011;9747;48.536;12.522;2023-08-12T04:02:07;1.98;;;1.88;;
19225;SDS011;9747;48.536;12.522;2023-08-12T04:04:35;1.90;;;1.80;;
19225;SDS011;9747;48.536;12.522;2023-08-12T04:07:03;2.40;;;2.30;;
19225;SDS011;9747;48.536;12.522;2023-08-12T04:09:30;2.00;;;1.90;;
19225;SDS011;9747;48.536;12.522;2023-08-12T04:11:58;1.80;;;1.70;;
19225;SDS011;9747;48.536;12.522;2023-08-12T04:14:27;1.70;;;1.70;;
19225;SDS011;9747;48.536;12.522;2023-08-12T04:16:55;1.85;;;1.77;;
19225;SDS011;9747;48.536;12.522;2023-08-12T04:19:23;2.03;;;1.92;;
19225;SDS011;9747;48.536;12.522;2023-08-12T04:21:50;1.70;;;1.70;;
19225;SDS011;9747;48.536;12.522;2023-08-12T04:24:18;1.90;;;1.80;;
19225;SDS011;9747;48.536;12.522;2023-08-12T04:26:46;2.00;;;1.90;;
19225;SDS011;9747;48.536;12.522;2023-08-12T04:29:14;2.03;;;1.92;;
19225;SDS011;9747;48.536;12.522;2023-08-12T04:31:43;2.10;;;2.00;;
19225;SDS011;9747;48.536;12.522;2023-08-12T04:34:11;1.90;;;1.80;;
19225;SDS011;9747;48.536;12.522;2023-08-12T04:36:38;1.80;;;1.70;;
19225;SDS011;9747;48.536;12.522;2023-08-12T04:39:05;2.05;;;1.95;;
19225;SDS011;9747;48.536;12.522;2023-08-12T04:41:33;1.90;;;1.75;;
19225;SDS011;9747;48.536;12.522;2023-08-12T04:44:03;1.90;;;1.80;;
19225;SDS011;9747;48.536;12.522;2023-08-12T04:46:32;1.83;;;1.77;;
19225;SDS011;9747;48.536;12.522;2023-08-12T04:49:00;1.73;;;1.73;;
19225;SDS011;9747;48.536;12.522;2023-08-12T04:51:28;2.20;;;2.10;;
19225;SDS011;9747;48.536;12.522;2023-08-12T04:53:56;2.00;;;1.90;;
19225;SDS011;9747;48.536;12.522;2023-08-12T04:56:25;2.08;;;1.98;;
19225;SDS011;9747;48.536;12.522;2023-08-12T04:58:54;1.90;;;1.80;;
19225;SDS011;9747;48.536;12.522;2023-08-12T05:01:22;1.85;;;1.80;;
19225;SDS011;9747;48.536;12.522;2023-08-12T05:03:51;2.00;;;1.90;;
19225;SDS011;9747;48.536;12.522;2023-08-12T05:06:20;1.83;;;1.83;;
19225;SDS011;9747;48.536;12.522;2023-08-12T05:08:48;2.15;;;1.95;;
19225;SDS011;9747;48.536;12.522;2023-08-12T05:11:15;1.70;;;1.70;;
19225;SDS011;9747;48.536;12.522;2023-08-12T05:13:43;2.13;;;2.03;;
19225;SDS011;9747;48.536;12.522;2023-08-12T05:16:11;1.90;;;1.80;;
19225;SDS011;9747;48.536;12.522;2023-08-12T05:18:38;1.90;;;1.80;;
19225;SDS011;9747;48.536;12.522;2023-08-12T05:21:06;1.70;;;1.70;;
19225;SDS011;9747;48.536;12.522;2023-08-12T05:23:35;1.60;;;1.60;;
19225;SDS011;9747;48.536;12.522;2023-08-12T05:26:02;1.92;;;1.83;;
19225;SDS011;9747;48.536;12.522;2023-08-12T05:28:30;2.00;;;1.90;;
19225;SDS011;9747;48.536;12.522;2023-08-12T05:30:57;1.98;;;1.80;;
19225;SDS011;9747;48.536;12.522;2023-08-12T05:33:25;4.82;;;3.70;;
19225;SDS011;9747;48.536;12.522;2023-08-12T05:35:52;4.80;;;4.40;;
19225;SDS011;9747;48.536;12.522;2023-08-12T05:38:20;4.95;;;4.13;;
19225;SDS011;9747;48.536;12.522;2023-08-12T05:40:49;4.55;;;3.78;;
19225;SDS011;9747;48.536;12.522;2023-08-12T05:43:16;4.50;;;3.72;;
19225;SDS011;9747;48.536;12.522;2023-08-12T05:45:43;3.67;;;3.38;;
19225;SDS011;9747;48.536;12.522;2023-08-12T05:48:11;4.47;;;4.07;;
19225;SDS011;9747;48.536;12.522;2023-08-12T05:50:38;4.40;;;4.00;;
19225;SDS011;9747;48.536;12.522;2023-08-12T05:53:06;8.05;;;3.90;;
19225;SDS011;9747;48.536;12.522;2023-08-12T05:55:33;3.85;;;3.45;;
19225;SDS011;9747;48.536;12.522;2023-08-12T05:58:02;4.13;;;3.80;;
19225;SDS011;9747;48.536;12.522;2023-08-12T06:00:30;4.55;;;3.78;;
19225;SDS011;9747;48.536;12.522;2023-08-12T06:02:58;4.32;;;3.45;;
19225;SDS011;9747;48.536;12.522;2023-08-12T06:05:25;4.10;;;3.15;;
19225;SDS011;9747;48.536;12.522;2023-08-12T06:07:52;3.78;;;3.40;;
19225;SDS011;9747;48.536;12.522;2023-08-12T06:10:20;4.18;;;3.85;;
19225;SDS011;9747;48.536;12.522;2023-08-12T06:12:47;4.32;;;3.67;;
19225;SDS011;9747;48.536;12.522;2023-08-12T06:15:16;4.22;;;3.60;;
19225;SDS011;9747;48.536;12.522;2023-08-12T06:17:43;3.88;;;3.50;;
19225;SDS011;9747;48.536;12.522;2023-08-12T06:20:11;3.70;;;3.40;;
19225;SDS011;9747;48.536;12.522;2023-08-12T06:22:39;4.82;;;4.00;;
19225;SDS011;9747;48.536;12.522;2023-08-12T06:25:07;3.75;;;3.45;;
19225;SDS011;9747;48.536;12.522;2023-08-12T06:27:35;3.20;;;2.90;;
19225;SDS011;9747;48.536;12.522;2023-08-12T06:30:03;7.80;;;3.70;;
19225;SDS011;9747;48.536;12.522;2023-08-12T06:32:34;6.63;;;3.70;;
19225;SDS011;9747;48.536;12.522;2023-08-12T06:35:02;5.50;;;4.15;;
19225;SDS011;9747;48.536;12.522;2023-08-12T06:37:30;5.40;;;4.20;;
19225;SDS011;9747;48.536;12.522;2023-08-12T06:39:57;6.00;;;4.00;;
19225;SDS011;9747;48.536;12.522;2023-08-12T06:42:25;8.20;;;3.70;;
19225;SDS011;9747;48.536;12.522;2023-08-12T06:44:53;7.07;;;3.70;;
19225;SDS011;9747;48.536;12.522;2023-08-12T06:47:22;6.85;;;3.67;;
19225;SDS011;9747;48.536;12.522;2023-08-12T06:49:52;7.82;;;3.95;;
19225;SDS011;9747;48.536;12.522;2023-08-12T06:52:19;4.35;;;3.70;;
19225;SDS011;9747;48.536;12.522;2023-08-12T06:54:47;4.38;;;3.60;;
19225;SDS011;9747;48.536;12.522;2023-08-12T06:57:14;3.92;;;3.63;;
19225;SDS011;9747;48.536;12.522;2023-08-12T06:59:42;3.38;;;3.08;;
19225;SDS011;9747;48.536;12.522;2023-08-12T07:02:09;4.30;;;3.45;;
19225;SDS011;9747;48.536;12.522;2023-08-12T07:04:37;3.67;;;3.38;;
19225;SDS011;9747;48.536;12.522;2023-08-12T07:07:06;3.50;;;3.20;;
19225;SDS011;9747;48.536;12.522;2023-08-12T07:09:34;3.80;;;3.50;;
19225;SDS011;9747;48.536;12.522;2023-08-12T07:12:01;3.45;;;3.15;;
19225;SDS011;9747;48.536;12.522;2023-08-12T07:14:29;5.18;;;3.30;;
19225;SDS011;9747;48.536;12.522;2023-08-12T07:16:57;3.22;;;2.97;;
19225;SDS011;9747;48.536;12.522;2023-08-12T07:19:24;2.90;;;2.70;;
19225;SDS011;9747;48.536;12.522;2023-08-12T07:21:52;4.65;;;3.13;;
19225;SDS011;9747;48.536;12.522;2023-08-12T07:24:20;3.20;;;2.90;;
19225;SDS011;9747;48.536;12.522;2023-08-12T07:26:48;3.13;;;2.80;;
19225;SDS011;9747;48.536;12.522;2023-08-12T07:29:15;2.83;;;2.60;;
19225;SDS011;9747;48.536;12.522;2023-08-12T07:31:43;5.20;;;2.58;;
19225;SDS011;9747;48.536;12.522;2023-08-12T07:34:10;2.70;;;2.50;;
19225;SDS011;9747;48.536;12.522;2023-08-12T07:36:38;3.03;;;2.83;;
19225;SDS011;9747;48.536;12.522;2023-08-12T07:39:06;2.80;;;2.60;;
19225;SDS011;9747;48.536;12.522;2023-08-12T07:41:35;2.80;;;2.60;;
19225;SDS011;9747;48.536;12.522;2023-08-12T07:44:03;2.50;;;2.40;;
19225;SDS011;9747;48.536;12.522;2023-08-12T07:46:31;2.63;;;2.42;;
19225;SDS011;9747;48.536;12.522;2023-08-12T07:48:58;2.72;;;2.50;;
19225;SDS011;9747;48.536;12.522;2023-08-12T07:51:26;2.65;;;2.45;;
19225;SDS011;9747;48.536;12.522;2023-08-12T07:53:53;2.88;;;2.58;;
19225;SDS011;9747;48.536;12.522;2023-08-12T07:56:20;3.63;;;2.65;;
19225;SDS011;9747;48.536;12.522;2023-08-12T07:58:49;2.50;;;2.38;;
19225;SDS011;9747;48.536;12.522;2023-08-12T08:01:17;2.80;;;2.60;;
19225;SDS011;9747;48.536;12.522;2023-08-12T08:03:44;3.05;;;2.72;;
19225;SDS011;9747;48.536;12.522;2023-08-12T08:06:11;2.75;;;2.50;;
19225;SDS011;9747;48.536;12.522;2023-08-12T08:08:39;2.90;;;2.40;;
19225;SDS011;9747;48.536;12.522;2023-08-12T08:11:06;2.83;;;2.60;;
19225;SDS011;9747;48.536;12.522;2023-08-12T08:13:34;2.50;;;2.30;;
19225;SDS011;9747;48.536;12.522;2023-08-12T08:16:03;2.47;;;2.28;;
19225;SDS011;9747;48.536;12.522;2023-08-12T08:18:30;2.58;;;2.47;;
19225;SDS011;9747;48.536;12.522;2023-08-12T08:20:58;4.15;;;2.40;;
19225;SDS011;9747;48.536;12.522;2023-08-12T08:23:25;2.60;;;2.40;;
19225;SDS011;9747;48.536;12.522;2023-08-12T08:25:53;3.75;;;2.50;;
19225;SDS011;9747;48.536;12.522;2023-08-12T08:28:20;2.92;;;2.63;;
19225;SDS011;9747;48.536;12.522;2023-08-12T08:30:48;3.20;;;2.10;;
19225;SDS011;9747;48.536;12.522;2023-08-12T08:33:17;3.75;;;2.63;;
19225;SDS011;9747;48.536;12.522;2023-08-12T08:35:44;3.15;;;2.20;;
19225;SDS011;9747;48.536;12.522;2023-08-12T08:38:12;2.63;;;2.40;;
19225;SDS011;9747;48.536;12.522;2023-08-12T08:40:39;3.65;;;2.33;;
19225;SDS011;9747;48.536;12.522;2023-08-12T08:43:07;6.30;;;2.83;;
19225;SDS011;9747;48.536;12.522;2023-08-12T08:45:35;2.65;;;2.45;;
19225;SDS011;9747;48.536;12.522;2023-08-12T08:48:02;2.30;;;2.10;;
19225;SDS011;9747;48.536;12.522;2023-08-12T08:50:32;2.72;;;2.50;;
19225;SDS011;9747;48.536;12.522;2023-08-12T08:52:59;2.70;;;2.50;;
19225;SDS011;9747;48.536;12.522;2023-08-12T08:55:28;2.42;;;2.25;;
19225;SDS011;9747;48.536;12.522;2023-08-12T08:57:56;2.58;;;2.40;;
19225;SDS011;9747;48.536;12.522;2023-08-12T09:00:24;3.78;;;2.30;;
19225;SDS011;9747;48.536;12.522;2023-08-12T09:02:52;2.80;;;2.42;;
19225;SDS011;9747;48.536;12.522;2023-08-12T09:05:20;2.80;;;2.55;;
19225;SDS011;9747;48.536;12.522;2023-08-12T09:07:49;3.92;;;2.38;;
19225;SDS011;9747;48.536;12.522;2023-08-12T09:10:17;2.88;;;2.10;;
19225;SDS011;9747;48.536;12.522;2023-08-12T09:12:45;2.47;;;2.30;;
19225;SDS011;9747;48.536;12.522;2023-08-12T09:15:13;2.45;;;2.25;;
19225;SDS011;9747;48.536;12.522;2023-08-12T09:17:42;2.28;;;2.10;;
19225;SDS011;9747;48.536;12.522;2023-08-12T09:20:09;2.20;;;2.10;;
19225;SDS011;9747;48.536;12.522;2023-08-12T09:22:37;2.28;;;2.00;;
19225;SDS011;9747;48.536;12.522;2023-08-12T09:25:08;2.10;;;2.00;;
19225;SDS011;9747;48.536;12.522;2023-08-12T09:27:36;2.00;;;1.90;;
19225;SDS011;9747;48.536;12.522;2023-08-12T09:30:04;2.40;;;2.20;;
19225;SDS011;9747;48.536;12.522;2023-08-12T09:32:33;1.90;;;1.80;;
19225;SDS011;9747;48.536;12.522;2023-08-12T09:35:03;2.13;;;2.03;;
19225;SDS011;9747;48.536;12.522;2023-08-12T09:37:32;2.08;;;1.90;;
19225;SDS011;9747;48.536;12.522;2023-08-12T09:39:59;2.35;;;2.17;;
19225;SDS011;9747;48.536;12.522;2023-08-12T09:42:32;2.28;;;2.10;;
19225;SDS011;9747;48.536;12.522;2023-08-12T09:45:00;2.30;;;2.20;;
19225;SDS011;9747;48.536;12.522;2023-08-12T09:47:28;2.25;;;2.10;;
19225;SDS011;9747;48.536;12.522;2023-08-12T09:49:55;1.80;;;1.80;;
19225;SDS011;9747;48.536;12.522;2023-08-12T09:52:24;1.90;;;1.80;;
19225;SDS011;9747;48.536;12.522;2023-08-12T09:54:52;1.95;;;1.85;;
19225;SDS011;9747;48.536;12.522;2023-08-12T09:57:22;2.00;;;1.90;;
19225;SDS011;9747;48.536;12.522;2023-08-12T09:59:53;2.00;;;1.90;;
19225;SDS011;9747;48.536;12.522;2023-08-12T10:02:21;1.77;;;1.67;;
19225;SDS011;9747;48.536;12.522;2023-08-12T10:04:49;2.35;;;2.25;;
19225;SDS011;9747;48.536;12.522;2023-08-12T10:07:21;2.03;;;1.92;;
19225;SDS011;9747;48.536;12.522;2023-08-12T10:09:49;2.10;;;2.00;;
19225;SDS011;9747;48.536;12.522;2023-08-12T10:12:16;1.75;;;1.67;;
19225;SDS011;9747;48.536;12.522;2023-08-12T10:14:44;1.60;;;1.60;;
19225;SDS011;9747;48.536;12.522;2023-08-12T10:17:14;2.25;;;2.15;;
19225;SDS011;9747;48.536;12.522;2023-08-12T10:19:43;1.90;;;1.80;;
19225;SDS011;9747;48.536;12.522;2023-08-12T10:22:11;1.92;;;1.67;;
19225;SDS011;9747;48.536;12.522;2023-08-12T10:24:39;1.80;;;1.70;;
19225;SDS011;9747;48.536;12.522;2023-08-12T10:27:09;1.90;;;1.80;;
19225;SDS011;9747;48.536;12.522;2023-08-12T10:29:37;1.80;;;1.70;;
19225;SDS011;9747;48.536;12.522;2023-08-12T10:32:06;1.90;;;1.80;;
19225;SDS011;9747;48.536;12.522;2023-08-12T10:34:35;2.08;;;1.98;;
19225;SDS011;9747;48.536;12.522;2023-08-12T10:37:02;2.00;;;1.90;;
19225;SDS011;9747;48.536;12.522;2023-08-12T10:39:31;2.38;;;2.05;;
19225;SDS011;9747;48.536;12.522;2023-08-12T10:41:59;2.15;;;1.98;;
19225;SDS011;9747;48.536;12.522;2023-08-12T10:44:27;2.30;;;2.20;;
19225;SDS011;9747;48.536;12.522;2023-08-12T10:47:07;2.72;;;1.85;;
19225;SDS011;9747;48.536;12.522;2023-08-12T10:49:39;3.22;;;2.08;;
19225;SDS011;9747;48.536;12.522;2023-08-12T10:52:19;3.30;;;2.10;;
19225;SDS011;9747;48.536;12.522;2023-08-12T10:54:54;3.05;;;1.70;;
19225;SDS011;9747;48.536;12.522;2023-08-12T10:57:34;3.30;;;1.80;;
19225;SDS011;9747;48.536;12.522;2023-08-12T11:00:03;2.60;;;1.80;;
19225;SDS011;9747;48.536;12.522;2023-08-12T11:02:33;4.82;;;1.98;;
19225;SDS011;9747;48.536;12.522;2023-08-12T11:05:04;4.20;;;1.88;;
19225;SDS011;9747;48.536;12.522;2023-08-12T11:07:37;2.08;;;1.95;;
19225;SDS011;9747;48.536;12.522;2023-08-12T11:10:10;3.13;;;1.92;;
19225;SDS011;9747;48.536;12.522;2023-08-12T11:12:40;7.85;;;2.00;;
19225;SDS011;9747;48.536;12.522;2023-08-12T11:15:08;7.70;;;2.35;;
19225;SDS011;9747;48.536;12.522;2023-08-12T11:17:38;5.30;;;2.47;;
19225;SDS011;9747;48.536;12.522;2023-08-12T11:20:09;5.45;;;2.40;;
19225;SDS011;9747;48.536;12.522;2023-08-12T11:22:39;3.25;;;2.50;;
19225;SDS011;9747;48.536;12.522;2023-08-12T11:25:08;4.65;;;2.13;;
19225;SDS011;9747;48.536;12.522;2023-08-12T11:27:40;6.78;;;2.10;;
19225;SDS011;9747;48.536;12.522;2023-08-12T11:30:09;8.13;;;2.40;;
19225;SDS011;9747;48.536;12.522;2023-08-12T11:32:40;2.05;;;1.95;;
19225;SDS011;9747;48.536;12.522;2023-08-12T11:35:10;8.65;;;2.40;;
19225;SDS011;9747;48.536;12.522;2023-08-12T11:37:39;3.25;;;2.00;;
19225;SDS011;9747;48.536;12.522;2023-08-12T11:40:08;5.88;;;2.10;;
19225;SDS011;9747;48.536;12.522;2023-08-12T11:42:40;4.90;;;2.60;;
19225;SDS011;9747;48.536;12.522;2023-08-12T11:45:10;7.13;;;4.70;;
19225;SDS011;9747;48.536;12.522;2023-08-12T11:47:38;5.20;;;2.30;;
19225;SDS011;9747;48.536;12.522;2023-08-12T11:50:07;7.47;;;2.70;;
19225;SDS011;9747;48.536;12.522;2023-08-12T11:52:38;8.27;;;3.30;;
19225;SDS011;9747;48.536;12.522;2023-08-12T11:55:06;8.90;;;3.30;;
19225;SDS011;9747;48.536;12.522;2023-08-12T11:57:34;7.63;;;3.15;;
19225;SDS011;9747;48.536;12.522;2023-08-12T12:00:03;4.72;;;2.85;;
19225;SDS011;9747;48.536;12.522;2023-08-12T12:02:38;3.92;;;2.85;;
19225;SDS011;9747;48.536;12.522;2023-08-12T12:05:08;4.50;;;2.88;;
19225;SDS011;9747;48.536;12.522;2023-08-12T12:07:38;6.70;;;3.00;;
19225;SDS011;9747;48.536;12.522;2023-08-12T12:10:06;5.65;;;2.60;;
19225;SDS011;9747;48.536;12.522;2023-08-12T12:12:34;4.18;;;2.58;;
19225;SDS011;9747;48.536;12.522;2023-08-12T12:15:02;5.13;;;2.67;;
19225;SDS011;9747;48.536;12.522;2023-08-12T12:17:31;4.70;;;2.28;;
19225;SDS011;9747;48.536;12.522;2023-08-12T12:19:59;4.45;;;2.25;;
19225;SDS011;9747;48.536;12.522;2023-08-12T12:22:29;2.25;;;2.00;;
19225;SDS011;9747;48.536;12.522;2023-08-12T12:24:58;10.55;;;2.85;;
19225;SDS011;9747;48.536;12.522;2023-08-12T12:27:27;10.35;;;2.90;;
19225;SDS011;9747;48.536;12.522;2023-08-12T12:29:54;3.47;;;2.40;;
19225;SDS011;9747;48.536;12.522;2023-08-12T12:32:22;5.00;;;2.47;;
19225;SDS011;9747;48.536;12.522;2023-08-12T12:34:49;3.47;;;2.55;;
19225;SDS011;9747;48.536;12.522;2023-08-12T12:37:17;4.40;;;2.78;;
19225;SDS011;9747;48.536;12.522;2023-08-12T12:39:46;4.18;;;2.33;;
19225;SDS011;9747;48.536;12.522;2023-08-12T12:42:13;2.72;;;2.50;;
19225;SDS011;9747;48.536;12.522;2023-08-12T12:44:41;2.53;;;2.33;;
19225;SDS011;9747;48.536;12.522;2023-08-12T12:47:09;2.70;;;2.50;;
19225;SDS011;9747;48.536;12.522;2023-08-12T12:49:37;2.75;;;2.55;;
19225;SDS011;9747;48.536;12.522;2023-08-12T12:52:06;2.50;;;2.35;;
19225;SDS011;9747;48.536;12.522;2023-08-12T12:54:34;2.72;;;2.63;;
19225;SDS011;9747;48.536;12.522;2023-08-12T12:57:02;2.80;;;2.70;;
19225;SDS011;9747;48.536;12.522;2023-08-12T12:59:30;2.35;;;2.15;;
19225;SDS011;9747;48.536;12.522;2023-08-12T13:01:58;2.58;;;2.38;;
19225;SDS011;9747;48.536;12.522;2023-08-12T13:04:26;2.35;;;2.25;;
19225;SDS011;9747;48.536;12.522;2023-08-12T13:06:53;3.55;;;2.25;;
19225;SDS011;9747;48.536;12.522;2023-08-12T13:09:21;2.40;;;2.20;;
19225;SDS011;9747;48.536;12.522;2023-08-12T13:11:48;4.22;;;2.38;;
19225;SDS011;9747;48.536;12.522;2023-08-12T13:14:17;3.60;;;2.42;;
19225;SDS011;9747;48.536;12.522;2023-08-12T13:16:46;2.78;;;2.58;;
19225;SDS011;9747;48.536;12.522;2023-08-12T13:19:13;2.20;;;2.10;;
19225;SDS011;9747;48.536;12.522;2023-08-12T13:21:42;2.47;;;2.25;;
19225;SDS011;9747;48.536;12.522;2023-08-12T13:24:13;2.80;;;2.28;;
19225;SDS011;9747;48.536;12.522;2023-08-12T13:26:40;2.75;;;2.55;;
19225;SDS011;9747;48.536;12.522;2023-08-12T13:29:08;3.45;;;2.20;;
19225;SDS011;9747;48.536;12.522;2023-08-12T13:31:37;2.30;;;2.20;;
19225;SDS011;9747;48.536;12.522;2023-08-12T13:34:05;2.40;;;2.30;;
19225;SDS011;9747;48.536;12.522;2023-08-12T13:36:32;2.80;;;2.60;;
19225;SDS011;9747;48.536;12.522;2023-08-12T13:39:00;3.40;;;3.03;;
19225;SDS011;9747;48.536;12.522;2023-08-12T13:41:27;3.83;;;3.00;;
19225;SDS011;9747;48.536;12.522;2023-08-12T13:43:55;3.28;;;2.67;;
19225;SDS011;9747;48.536;12.522;2023-08-12T13:46:22;3.25;;;3.05;;
19225;SDS011;9747;48.536;12.522;2023-08-12T13:48:51;3.00;;;2.80;;
19225;SDS011;9747;48.536;12.522;2023-08-12T13:51:19;4.75;;;2.53;;
19225;SDS011;9747;48.536;12.522;2023-08-12T13:53:47;3.08;;;2.45;;
19225;SDS011;9747;48.536;12.522;2023-08-12T13:56:15;3.72;;;2.55;;
19225;SDS011;9747;48.536;12.522;2023-08-12T13:58:42;3.03;;;2.33;;
19225;SDS011;9747;48.536;12.522;2023-08-12T14:01:10;2.70;;;2.50;;
19225;SDS011;9747;48.536;12.522;2023-08-12T14:03:37;2.83;;;2.50;;
19225;SDS011;9747;48.536;12.522;2023-08-12T14:06:06;3.78;;;2.30;;
19225;SDS011;9747;48.536;12.522;2023-08-12T14:08:34;2.67;;;2.45;;
19225;SDS011;9747;48.536;12.522;2023-08-12T14:11:02;2.85;;;2.30;;
19225;SDS011;9747;48.536;12.522;2023-08-12T14:13:29;2.45;;;2.25;;
19225;SDS011;9747;48.536;12.522;2023-08-12T14:15:57;2.90;;;2.45;;
19225;SDS011;9747;48.536;12.522;2023-08-12T14:18:24;2.95;;;2.30;;
19225;SDS011;9747;48.536;12.522;2023-08-12T14:20:52;2.92;;;2.72;;
19225;SDS011;9747;48.536;12.522;2023-08-12T14:23:21;2.53;;;2.40;;
19225;SDS011;9747;48.536;12.522;2023-08-12T14:25:48;2.55;;;2.30;;
19225;SDS011;9747;48.536;12.522;2023-08-12T14:28:16;2.55;;;2.40;;
19225;SDS011;9747;48.536;12.522;2023-08-12T14:30:44;2.70;;;2.60;;
19225;SDS011;9747;48.536;12.522;2023-08-12T14:33:11;2.53;;;2.35;;
19225;SDS011;9747;48.536;12.522;2023-08-12T14:35:39;2.95;;;2.72;;
19225;SDS011;9747;48.536;12.522;2023-08-12T14:38:06;2.50;;;2.30;;
19225;SDS011;9747;48.536;12.522;2023-08-12T14:40:35;3.92;;;2.22;;
19225;SDS011;9747;48.536;12.522;2023-08-12T14:43:03;2.97;;;2.45;;
19225;SDS011;9747;48.536;12.522;2023-08-12T14:45:30;3.65;;;2.60;;
19225;SDS011;9747;48.536;12.522;2023-08-12T14:47:58;2.78;;;2.40;;
19225;SDS011;9747;48.536;12.522;2023-08-12T14:50:25;3.13;;;2.40;;
19225;SDS011;9747;48.536;12.522;2023-08-12T14:52:53;3.42;;;2.70;;
19225;SDS011;9747;48.536;12.522;2023-08-12T14:55:20;3.08;;;2.58;;